Time;durP1;ratioP1;P1;durP2;ratioP2;P2;SDS_P1;SDS_P2;PMS_P1;PMS_P2;Temp;Humidity;BMP_temperature;BMP_pressure;BME280_temperature;BME280_humidity;BME280_pressure;Samples;Min_cycle;Max_cycle;Signal;HPM_P1;HPM_P2
2021/06/20 00:00:44;;;;;;;10.05;4.18;;;;;;;20.88;46.90;94925.41;5069750;28;20096;-65
2021/06/20 00:03:10;;;;;;;27.25;4.50;;;;;;;17.24;60.99;94956.28;5041185;28;20105;-64
2021/06/20 00:05:37;;;;;;;20.33;3.38;;;;;;;15.53;68.94;94992.38;5073912;28;20084;-64
2021/06/20 00:08:04;;;;;;;74.57;4.32;;;;;;;15.00;71.56;94968.59;5074915;28;20104;-65
2021/06/20 00:10:29;;;;;;;6.63;2.70;;;;;;;13.48;74.54;94987.94;5071810;28;20939;-67
2021/06/20 00:12:56;;;;;;;3.75;2.03;;;;;;;14.61;73.38;94958.00;5068524;28;20590;-67
2021/06/20 00:15:22;;;;;;;6.28;2.53;;;;;;;15.24;73.75;94907.09;5047195;28;20242;-67
2021/06/20 00:17:47;;;;;;;4.53;2.20;;;;;;;15.81;70.86;94884.47;5078248;28;20113;-66
2021/06/20 00:20:14;;;;;;;3.58;1.92;;;;;;;15.66;70.63;94865.28;5074702;28;20261;-67
2021/06/20 00:22:40;;;;;;;6.10;1.52;;;;;;;15.51;68.10;94874.56;5070290;28;20144;-66
2021/06/20 00:25:06;;;;;;;4.90;1.42;;;;;;;15.81;70.30;94856.84;5070944;28;20080;-68
2021/06/20 00:27:32;;;;;;;12.57;4.57;;;;;;;16.33;69.15;94847.31;5069519;28;20097;-65
2021/06/20 00:29:57;;;;;;;4.15;1.98;;;;;;;16.61;71.25;94840.41;5069035;28;20103;-66
2021/06/20 00:32:22;;;;;;;4.22;2.58;;;;;;;16.79;70.95;94850.22;5066316;28;20105;-66
2021/06/20 00:34:48;;;;;;;7.50;2.80;;;;;;;17.20;70.91;94876.34;5071740;28;20088;-65
2021/06/20 00:37:13;;;;;;;6.38;2.65;;;;;;;16.61;69.27;94929.91;5063612;28;20134;-65
2021/06/20 00:39:39;;;;;;;6.82;2.00;;;;;;;16.51;70.08;94929.66;5072983;28;20104;-67
2021/06/20 00:42:04;;;;;;;5.50;2.67;;;;;;;16.79;69.81;94892.41;5067214;28;20113;-65
2021/06/20 00:44:30;;;;;;;5.68;2.33;;;;;;;16.78;69.90;94880.84;5072769;28;20162;-65
2021/06/20 00:46:55;;;;;;;7.88;4.68;;;;;;;16.60;67.88;94895.22;5065896;28;20100;-65
2021/06/20 00:49:21;;;;;;;8.35;4.32;;;;;;;16.74;68.96;94902.00;5068908;28;20131;-65
2021/06/20 00:51:46;;;;;;;8.02;3.90;;;;;;;16.77;68.70;94893.44;5074213;28;20116;-65
2021/06/20 00:54:12;;;;;;;9.10;4.20;;;;;;;17.12;69.99;94890.97;5067012;28;20080;-65
2021/06/20 00:56:37;;;;;;;6.68;3.72;;;;;;;17.33;69.67;94877.94;5072212;28;20543;-65
2021/06/20 00:59:03;;;;;;;7.85;4.10;;;;;;;17.47;69.05;94865.81;5071486;28;20553;-65
2021/06/20 01:01:34;;;;;;;6.13;3.15;;;;;;;17.50;70.21;94854.59;5051878;28;20088;-65
2021/06/20 01:04:00;;;;;;;7.22;3.10;;;;;;;17.66;70.25;94841.41;5073778;28;20108;-65
2021/06/20 01:06:26;;;;;;;7.40;3.60;;;;;;;17.84;70.01;94848.44;5069953;28;20084;-65
2021/06/20 01:08:52;;;;;;;11.27;4.18;;;;;;;18.08;69.85;94856.38;5074027;28;20116;-65
2021/06/20 01:11:17;;;;;;;14.63;4.68;;;;;;;18.18;70.23;94870.03;5074160;28;20109;-65
2021/06/20 01:13:43;;;;;;;7.80;3.30;;;;;;;18.10;69.84;94878.50;5067404;28;20304;-65
2021/06/20 01:16:09;;;;;;;9.40;3.38;;;;;;;18.17;70.17;94876.47;5069727;28;20545;-65
2021/06/20 01:18:34;;;;;;;11.25;4.57;;;;;;;18.52;69.61;94882.66;5071163;28;20073;-65
2021/06/20 01:21:00;;;;;;;8.30;3.10;;;;;;;18.21;69.99;94878.66;5070060;28;20100;-65
2021/06/20 01:23:25;;;;;;;16.27;5.20;;;;;;;18.22;70.35;94877.63;5070369;28;20105;-65
2021/06/20 01:25:51;;;;;;;11.43;3.85;;;;;;;17.78;69.53;94935.56;5063514;28;20572;-65
2021/06/20 01:28:19;;;;;;;13.45;4.00;;;;;;;16.93;67.45;94954.81;5064931;28;20104;-65
2021/06/20 01:30:45;;;;;;;12.65;3.72;;;;;;;16.58;69.14;94881.19;5079629;28;20112;-65
2021/06/20 01:33:10;;;;;;;10.20;3.53;;;;;;;14.38;73.14;94924.63;5071294;28;20477;-65
2021/06/20 01:35:36;;;;;;;12.50;4.20;;;;;;;14.56;71.19;94926.53;5065478;28;20112;-65
2021/06/20 01:38:03;;;;;;;17.83;4.35;;;;;;;13.88;75.38;94928.94;5067333;28;20081;-65
2021/06/20 01:40:28;;;;;;;12.27;3.88;;;;;;;14.31;72.45;94918.53;5068256;28;20562;-66
2021/06/20 01:42:54;;;;;;;12.00;3.15;;;;;;;14.68;73.02;94899.84;5067743;28;20129;-65
2021/06/20 01:45:20;;;;;;;6.82;3.15;;;;;;;15.24;72.78;94896.38;5067318;28;20179;-65
2021/06/20 01:47:46;;;;;;;14.43;3.90;;;;;;;15.67;71.49;94891.09;5071223;28;20100;-65
2021/06/20 01:50:13;;;;;;;11.80;4.18;;;;;;;15.52;68.48;94881.56;5067112;28;20135;-64
2021/06/20 01:52:39;;;;;;;13.05;4.03;;;;;;;15.94;70.30;94875.41;5074736;28;20108;-66
2021/06/20 01:55:06;;;;;;;27.75;10.55;;;;;;;15.49;68.01;94874.78;5074247;28;20147;-66
2021/06/20 01:57:33;;;;;;;16.60;6.88;;;;;;;16.10;70.19;94875.78;5071623;28;20577;-64
2021/06/20 01:59:59;;;;;;;23.70;8.52;;;;;;;16.48;69.45;94874.53;5067596;28;20101;-64
2021/06/20 02:02:25;;;;;;;12.68;4.65;;;;;;;16.91;70.88;94871.69;5071527;28;20072;-65
2021/06/20 02:04:52;;;;;;;11.13;4.05;;;;;;;16.98;70.41;94869.69;5069734;28;20581;-65
2021/06/20 02:07:17;;;;;;;10.27;4.00;;;;;;;17.17;70.09;94876.81;5075050;28;20493;-64
2021/06/20 02:09:43;;;;;;;9.48;3.83;;;;;;;17.28;69.97;94878.66;5081053;28;20095;-64
2021/06/20 02:12:09;;;;;;;7.43;2.80;;;;;;;17.40;69.78;94876.72;5078524;28;20549;-65
2021/06/20 02:14:35;;;;;;;7.80;3.65;;;;;;;17.44;69.61;94871.69;5074621;28;20491;-65
2021/06/20 02:17:14;;;;;;;6.20;2.90;;;;;;;17.51;70.56;94883.13;5049732;28;20694;-65
2021/06/20 02:19:39;;;;;;;28.23;9.52;;;;;;;17.56;68.27;94878.88;5070298;28;20095;-64
2021/06/20 02:22:05;;;;;;;11.63;4.85;;;;;;;17.63;69.27;94880.38;5080314;28;20440;-65
2021/06/20 02:24:30;;;;;;;7.28;3.38;;;;;;;17.71;69.23;94876.47;5068305;28;20468;-65
2021/06/20 02:26:55;;;;;;;9.52;2.80;;;;;;;17.72;68.61;94872.75;5068965;28;20115;-67
2021/06/20 02:29:21;;;;;;;15.15;5.15;;;;;;;17.70;63.76;94866.78;5073388;28;20338;-65
2021/06/20 02:31:46;;;;;;;9.88;4.22;;;;;;;17.76;68.75;94871.19;5076446;28;20127;-65
2021/06/20 02:34:12;;;;;;;12.93;5.47;;;;;;;17.60;66.71;94858.50;5071891;28;20315;-65
2021/06/20 02:36:37;;;;;;;8.68;3.60;;;;;;;17.58;68.10;94855.25;5069999;28;20562;-65
2021/06/20 02:39:03;;;;;;;9.93;3.50;;;;;;;17.48;69.40;94840.56;5073974;28;20166;-65
2021/06/20 02:41:29;;;;;;;49.42;15.98;;;;;;;17.14;66.69;94856.59;5068929;28;20092;-65
2021/06/20 02:43:55;;;;;;;19.35;6.10;;;;;;;16.95;63.20;94859.41;5073126;28;20323;-65
2021/06/20 02:46:21;;;;;;;16.42;5.22;;;;;;;17.26;70.11;94853.84;5071592;28;20093;-65
2021/06/20 02:48:46;;;;;;;22.80;8.30;;;;;;;17.33;65.80;94851.03;5071417;28;20515;-65
2021/06/20 02:51:12;;;;;;;11.15;3.55;;;;;;;17.37;69.38;94854.88;5071941;28;20186;-65
2021/06/20 02:53:37;;;;;;;19.23;4.32;;;;;;;17.35;66.86;94860.50;5071120;28;20073;-65
2021/06/20 02:56:03;;;;;;;36.30;9.88;;;;;;;17.52;69.95;94863.25;5068759;28;20108;-65
2021/06/20 02:58:28;;;;;;;12.43;4.32;;;;;;;17.12;62.79;94864.06;5072965;28;20097;-65
2021/06/20 03:00:54;;;;;;;13.13;3.75;;;;;;;17.45;69.17;94862.56;5070669;28;20493;-66
2021/06/20 03:03:19;;;;;;;15.77;5.85;;;;;;;17.61;67.36;94871.72;5073531;28;20101;-65
2021/06/20 03:05:45;;;;;;;14.60;5.97;;;;;;;17.57;68.21;94881.34;5071045;28;20084;-66
2021/06/20 03:08:10;;;;;;;14.52;5.70;;;;;;;17.50;67.06;94894.94;5071033;28;20100;-65
2021/06/20 03:10:36;;;;;;;12.05;4.10;;;;;;;17.47;67.50;94908.06;5071157;28;20097;-65
2021/06/20 03:13:05;;;;;;;11.75;3.63;;;;;;;16.62;64.48;94918.13;5076123;28;20468;-65
2021/06/20 03:15:31;;;;;;;10.93;4.15;;;;;;;16.51;64.78;94929.66;5072643;28;20131;-65
2021/06/20 03:17:57;;;;;;;11.50;4.07;;;;;;;16.06;66.43;94933.66;5076209;28;20080;-65
2021/06/20 03:20:23;;;;;;;16.95;3.85;;;;;;;16.50;67.98;94928.88;5073274;28;20097;-64
2021/06/20 03:22:49;;;;;;;12.40;4.50;;;;;;;16.12;68.15;94938.13;5085190;28;20076;-65
2021/06/20 03:25:15;;;;;;;15.23;4.63;;;;;;;16.37;68.87;94931.75;5074576;28;20076;-64
2021/06/20 03:27:40;;;;;;;11.88;4.10;;;;;;;15.52;67.98;94934.38;5079794;28;20907;-66
2021/06/20 03:30:07;;;;;;;13.05;4.20;;;;;;;15.80;66.78;94938.34;5083604;28;20107;-65
2021/06/20 03:32:32;;;;;;;16.30;4.90;;;;;;;16.02;69.08;94944.06;5071280;28;20117;-64
2021/06/20 03:34:57;;;;;;;15.85;4.78;;;;;;;15.86;69.45;94958.94;5067913;28;20105;-64
2021/06/20 03:37:23;;;;;;;14.30;4.45;;;;;;;15.93;67.92;94956.97;5067135;28;20072;-64
2021/06/20 03:39:48;;;;;;;13.93;4.57;;;;;;;16.21;68.64;94950.16;5073331;28;20199;-64
2021/06/20 03:42:14;;;;;;;13.48;4.18;;;;;;;16.24;67.60;94946.19;5069516;28;20194;-64
2021/06/20 03:44:41;;;;;;;13.40;4.93;;;;;;;15.39;68.47;94938.88;5073722;28;20111;-64
2021/06/20 03:47:07;;;;;;;12.85;4.43;;;;;;;15.64;67.62;94945.19;5071969;28;20108;-65
2021/06/20 03:49:32;;;;;;;15.15;5.13;;;;;;;15.45;69.65;94937.97;5072050;28;20716;-64
2021/06/20 03:51:58;;;;;;;12.05;4.38;;;;;;;15.51;71.06;94940.78;5070974;28;20739;-66
2021/06/20 03:54:24;;;;;;;10.65;4.60;;;;;;;15.45;70.89;94948.72;5080871;28;20153;-64
2021/06/20 03:56:50;;;;;;;12.43;4.15;;;;;;;15.71;70.43;94949.41;5071365;28;20592;-64
2021/06/20 03:59:16;;;;;;;11.70;4.43;;;;;;;15.77;68.98;94952.25;5078975;28;20100;-64
2021/06/20 04:01:41;;;;;;;16.02;4.68;;;;;;;15.57;68.26;94966.75;5069549;28;20093;-64
2021/06/20 04:04:07;;;;;;;10.50;4.10;;;;;;;15.35;71.07;94967.19;5068521;28;20108;-64
2021/06/20 04:06:32;;;;;;;11.15;4.35;;;;;;;15.17;71.25;94982.25;5073216;28;20496;-65
2021/06/20 04:08:58;;;;;;;13.98;4.43;;;;;;;15.63;69.53;94979.25;5069094;28;20388;-65
2021/06/20 04:11:23;;;;;;;13.27;4.60;;;;;;;14.82;70.31;94996.19;5073721;28;20161;-65
2021/06/20 04:13:49;;;;;;;13.13;4.43;;;;;;;14.95;70.89;94988.03;5070152;28;20476;-64
2021/06/20 04:16:14;;;;;;;13.43;4.65;;;;;;;14.73;69.95;94979.53;5075325;28;20105;-64
2021/06/20 04:18:40;;;;;;;13.70;4.10;;;;;;;15.27;70.83;94991.63;5070596;28;20492;-64
2021/06/20 04:21:05;;;;;;;11.45;4.40;;;;;;;15.34;70.65;94995.06;5076533;28;20075;-64
2021/06/20 04:23:30;;;;;;;15.43;3.80;;;;;;;14.78;71.20;95000.34;5076904;28;20212;-64
2021/06/20 04:25:56;;;;;;;14.63;4.22;;;;;;;14.68;71.54;94993.59;5076431;28;20660;-66
2021/06/20 04:28:21;;;;;;;16.52;3.92;;;;;;;14.94;70.91;94991.75;5077300;28;20105;-65
2021/06/20 04:30:48;;;;;;;15.32;3.65;;;;;;;15.10;71.21;95002.94;5071466;28;20100;-66
2021/06/20 04:33:13;;;;;;;14.00;4.35;;;;;;;14.01;70.97;95007.47;5070002;28;20085;-64
2021/06/20 04:35:40;;;;;;;11.68;3.72;;;;;;;14.34;72.41;95006.41;5077088;28;20136;-66
2021/06/20 04:38:05;;;;;;;13.10;4.70;;;;;;;13.64;71.91;94994.66;5065231;28;20085;-64
2021/06/20 04:40:33;;;;;;;10.93;4.05;;;;;;;14.00;71.21;95012.00;5071367;28;20107;-64
2021/06/20 04:43:06;;;;;;;11.65;3.97;;;;;;;14.20;72.86;95005.69;5071620;28;20156;-64
2021/06/20 04:45:31;;;;;;;10.48;4.13;;;;;;;14.68;71.62;95003.47;5067026;28;20231;-64
2021/06/20 04:47:57;;;;;;;13.77;4.38;;;;;;;13.76;72.91;95005.50;5067055;28;20104;-64
2021/06/20 04:50:22;;;;;;;11.35;3.78;;;;;;;14.57;72.33;95005.84;5067386;28;20096;-64
2021/06/20 04:52:48;;;;;;;15.57;4.78;;;;;;;14.54;72.07;95006.28;5065845;28;20107;-64
2021/06/20 04:55:14;;;;;;;10.00;4.25;;;;;;;14.36;72.26;94996.31;5067545;28;20100;-64
2021/06/20 04:57:39;;;;;;;12.15;4.45;;;;;;;13.73;71.11;94998.72;5068862;28;20077;-64
2021/06/20 05:00:05;;;;;;;13.05;4.40;;;;;;;14.53;70.07;95009.16;5069408;28;20149;-64
2021/06/20 05:02:31;;;;;;;12.65;4.22;;;;;;;14.42;72.17;95000.78;5069685;28;20150;-64
2021/06/20 05:04:56;;;;;;;9.30;4.47;;;;;;;14.35;70.46;95008.09;5070695;28;20450;-64
2021/06/20 05:07:22;;;;;;;15.43;4.30;;;;;;;14.61;68.22;94998.19;5069019;28;20575;-64
2021/06/20 05:09:47;;;;;;;10.32;4.15;;;;;;;15.04;69.12;95007.31;5075034;28;20088;-64
2021/06/20 05:12:13;;;;;;;13.15;4.20;;;;;;;15.24;69.84;95008.97;5051676;28;20108;-64
2021/06/20 05:14:42;;;;;;;8.43;4.10;;;;;;;14.97;70.12;95019.97;5076407;28;20133;-64
2021/06/20 05:17:07;;;;;;;8.23;4.07;;;;;;;15.19;71.30;95015.00;5080005;28;20453;-64
2021/06/20 05:19:33;;;;;;;13.32;4.43;;;;;;;14.46;67.74;95010.03;5077488;28;20108;-64
2021/06/20 05:21:58;;;;;;;12.05;4.07;;;;;;;13.48;71.16;95033.38;5079669;28;20541;-66
2021/06/20 05:24:24;;;;;;;9.75;4.05;;;;;;;14.16;70.41;95031.25;5077233;28;20108;-64
2021/06/20 05:26:49;;;;;;;8.93;3.60;;;;;;;14.39;71.69;95037.91;5073065;28;20456;-64
2021/06/20 05:29:15;;;;;;;13.13;5.35;;;;;;;13.86;74.04;95042.50;5069806;28;20081;-64
2021/06/20 05:31:40;;;;;;;11.02;4.20;;;;;;;14.96;68.57;95048.63;5076695;28;20104;-64
2021/06/20 05:34:06;;;;;;;6.32;3.50;;;;;;;14.59;68.96;95038.56;5066856;28;20445;-66
2021/06/20 05:36:31;;;;;;;12.38;3.67;;;;;;;14.08;68.44;95046.53;5066740;28;20446;-64
2021/06/20 05:38:56;;;;;;;5.85;3.00;;;;;;;14.81;69.36;95062.34;5070221;28;20104;-64
2021/06/20 05:41:22;;;;;;;7.68;3.30;;;;;;;15.03;67.83;95061.16;5068102;28;20089;-64
2021/06/20 05:43:47;;;;;;;8.98;3.25;;;;;;;14.88;67.10;95066.81;5069187;28;20121;-64
2021/06/20 05:46:13;;;;;;;9.15;3.10;;;;;;;14.81;67.89;95080.28;5067050;28;20083;-64
2021/06/20 05:48:39;;;;;;;12.40;3.47;;;;;;;14.43;67.42;95068.56;5069010;28;20112;-64
2021/06/20 05:51:04;;;;;;;7.47;3.35;;;;;;;14.53;67.02;95076.97;5067242;28;20105;-64
2021/06/20 05:53:30;;;;;;;5.95;3.08;;;;;;;14.61;66.88;95065.16;5064694;28;20849;-64
2021/06/20 05:55:55;;;;;;;5.88;2.80;;;;;;;14.34;67.69;95071.50;5067237;28;20378;-64
2021/06/20 05:58:21;;;;;;;6.03;3.00;;;;;;;13.92;69.43;95076.47;5074559;28;20315;-66
2021/06/20 06:00:46;;;;;;;5.63;2.92;;;;;;;13.76;69.59;95086.56;5069275;28;20477;-64
2021/06/20 06:03:11;;;;;;;9.23;3.28;;;;;;;13.30;66.83;95083.81;5073350;28;20177;-66
2021/06/20 06:05:37;;;;;;;7.88;3.03;;;;;;;13.47;67.65;95069.19;5068375;28;20600;-64
2021/06/20 06:08:03;;;;;;;7.45;3.00;;;;;;;12.85;68.85;95081.75;5072200;28;20604;-64
2021/06/20 06:10:28;;;;;;;7.93;3.10;;;;;;;13.37;66.97;95070.44;5069777;28;20296;-64
2021/06/20 06:12:55;;;;;;;5.72;2.58;;;;;;;14.24;65.27;95079.19;5072253;28;20096;-64
2021/06/20 06:15:20;;;;;;;8.45;2.83;;;;;;;14.25;64.33;95069.31;5067831;28;20472;-64
2021/06/20 06:17:46;;;;;;;6.97;2.47;;;;;;;14.66;66.23;95054.63;5072504;28;20408;-64
2021/06/20 06:20:12;;;;;;;5.40;2.65;;;;;;;14.17;62.79;95062.34;5068106;28;20093;-64
2021/06/20 06:22:37;;;;;;;6.72;2.60;;;;;;;14.78;61.19;95059.28;5080307;28;20099;-64
2021/06/20 06:25:04;;;;;;;6.22;2.55;;;;;;;14.81;62.48;95064.19;5069085;28;20109;-64
2021/06/20 06:27:29;;;;;;;6.93;2.88;;;;;;;15.58;60.62;95052.38;5074411;28;20092;-64
2021/06/20 06:29:54;;;;;;;9.98;2.90;;;;;;;14.35;62.41;95061.63;5071076;28;20093;-64
2021/06/20 06:32:20;;;;;;;6.70;2.63;;;;;;;15.45;63.14;95063.22;5068413;28;20109;-64
2021/06/20 06:34:45;;;;;;;6.03;2.50;;;;;;;15.53;60.59;95062.09;5063687;28;20077;-64
2021/06/20 06:37:11;;;;;;;4.15;2.63;;;;;;;15.76;58.17;95072.19;5070491;28;20166;-64
2021/06/20 06:39:36;;;;;;;5.50;2.40;;;;;;;16.02;59.61;95064.03;5068517;28;20105;-63
2021/06/20 06:42:02;;;;;;;5.22;2.20;;;;;;;16.45;58.29;95071.09;5065130;28;20121;-63
2021/06/20 06:44:27;;;;;;;3.90;2.40;;;;;;;16.42;59.47;95078.81;5064366;28;20565;-64
2021/06/20 06:46:53;;;;;;;8.75;2.80;;;;;;;16.30;56.47;95076.03;5065357;28;20309;-64
2021/06/20 06:49:19;;;;;;;7.05;2.60;;;;;;;17.15;58.80;95076.06;5072654;28;20072;-64
2021/06/20 06:51:45;;;;;;;7.60;2.97;;;;;;;16.90;56.06;95079.75;5068916;28;20122;-64
2021/06/20 06:54:10;;;;;;;3.47;2.20;;;;;;;16.36;54.88;95081.34;5066007;28;20151;-64
2021/06/20 06:56:35;;;;;;;4.80;2.38;;;;;;;16.95;53.97;95074.50;5073527;28;20098;-64
2021/06/20 06:59:02;;;;;;;5.65;2.28;;;;;;;16.84;56.47;95094.09;5070263;28;20069;-64
2021/06/20 07:01:27;;;;;;;4.70;2.20;;;;;;;16.30;56.98;95100.22;5073360;28;20537;-64
2021/06/20 07:03:53;;;;;;;5.38;2.50;;;;;;;16.33;56.51;95094.41;5069878;28;20108;-64
2021/06/20 07:06:21;;;;;;;5.35;2.30;;;;;;;16.11;55.74;95092.19;5075751;28;20096;-64
2021/06/20 07:08:47;;;;;;;4.40;2.33;;;;;;;15.88;57.27;95091.84;5073295;28;20255;-64
2021/06/20 07:11:12;;;;;;;4.68;2.30;;;;;;;15.67;56.62;95097.69;5077318;28;20120;-64
2021/06/20 07:13:38;;;;;;;2.83;2.00;;;;;;;15.95;59.52;95074.84;5078354;28;20072;-64
2021/06/20 07:16:04;;;;;;;4.25;2.58;;;;;;;16.13;58.04;95065.94;5085753;28;20494;-64
2021/06/20 07:18:29;;;;;;;5.45;2.33;;;;;;;17.09;56.81;95064.31;5074096;28;20069;-64
2021/06/20 07:20:55;;;;;;;6.97;2.53;;;;;;;17.02;55.36;95066.31;5073530;28;20161;-64
2021/06/20 07:23:20;;;;;;;5.40;2.20;;;;;;;16.94;56.29;95064.78;5072436;28;20588;-64
2021/06/20 07:25:46;;;;;;;3.83;2.45;;;;;;;16.58;56.58;95061.22;5068515;28;20087;-64
2021/06/20 07:28:11;;;;;;;5.40;2.30;;;;;;;16.93;56.55;95063.13;5063191;28;20138;-64
2021/06/20 07:30:36;;;;;;;6.97;2.40;;;;;;;16.57;54.44;95056.88;5075127;28;20097;-64
2021/06/20 07:33:02;;;;;;;4.03;2.17;;;;;;;17.02;53.85;95066.31;5068970;28;20101;-64
2021/06/20 07:35:27;;;;;;;5.90;2.30;;;;;;;17.48;54.03;95063.88;5065378;28;20101;-64
2021/06/20 07:37:53;;;;;;;10.63;2.50;;;;;;;17.24;53.78;95060.38;5065503;28;20268;-64
2021/06/20 07:40:18;;;;;;;4.03;2.30;;;;;;;17.51;52.80;95067.97;5070201;28;20104;-64
2021/06/20 07:42:45;;;;;;;7.95;2.38;;;;;;;16.46;52.67;95088.84;5063483;28;20197;-64
2021/06/20 07:45:11;;;;;;;3.20;2.17;;;;;;;16.63;53.39;95088.22;5068119;28;20230;-64
2021/06/20 07:47:37;;;;;;;6.65;2.25;;;;;;;15.99;53.86;95084.09;5065761;28;20104;-64
2021/06/20 07:50:06;;;;;;;6.95;2.30;;;;;;;16.84;53.12;95078.81;5071206;28;20126;-64
2021/06/20 07:52:32;;;;;;;4.15;2.10;;;;;;;16.91;53.27;95076.00;5072253;28;20108;-64
2021/06/20 07:54:57;;;;;;;3.80;2.13;;;;;;;16.97;52.82;95079.63;5068881;28;20076;-64
2021/06/20 07:57:23;;;;;;;5.40;2.35;;;;;;;16.11;56.97;95074.22;5064384;28;20441;-64
2021/06/20 07:59:49;;;;;;;5.80;2.28;;;;;;;16.77;51.89;95078.88;5071046;28;20108;-64
2021/06/20 08:02:14;;;;;;;5.35;2.08;;;;;;;17.06;51.12;95085.50;5068566;28;20764;-64
2021/06/20 08:04:40;;;;;;;4.88;2.13;;;;;;;17.08;50.30;95089.59;5064056;28;20100;-64
2021/06/20 08:07:06;;;;;;;6.60;2.20;;;;;;;16.90;52.49;95087.81;5063351;28;20101;-64
2021/06/20 08:09:32;;;;;;;5.05;2.22;;;;;;;17.16;50.51;95075.00;5074851;28;20080;-64
2021/06/20 08:11:58;;;;;;;5.40;2.20;;;;;;;17.54;50.34;95073.69;5065697;28;20644;-64
2021/06/20 08:14:23;;;;;;;4.85;2.20;;;;;;;17.60;51.12;95074.63;5065714;28;20465;-64
2021/06/20 08:16:49;;;;;;;4.93;1.90;;;;;;;17.56;48.46;95080.69;5063770;28;20224;-64
2021/06/20 08:19:14;;;;;;;3.85;2.30;;;;;;;17.25;49.29;95079.00;5069026;28;20317;-64
2021/06/20 08:21:40;;;;;;;4.05;2.17;;;;;;;17.48;49.14;95074.66;5070450;28;20847;-64
2021/06/20 08:24:06;;;;;;;3.80;2.03;;;;;;;17.11;50.42;95072.16;5067884;28;20572;-64
2021/06/20 08:26:31;;;;;;;4.80;2.10;;;;;;;17.36;48.87;95079.19;5067030;28;20628;-64
2021/06/20 08:28:57;;;;;;;6.03;2.03;;;;;;;16.97;49.45;95079.63;5068644;28;20112;-64
2021/06/20 08:31:22;;;;;;;2.75;2.08;;;;;;;17.27;49.14;95066.09;5081355;28;20108;-64
2021/06/20 08:33:48;;;;;;;3.22;2.30;;;;;;;17.35;50.54;95059.56;5070705;28;20077;-64
2021/06/20 08:36:13;;;;;;;5.78;1.95;;;;;;;17.95;47.00;95067.53;5068110;28;20108;-64
2021/06/20 08:38:39;;;;;;;4.60;2.00;;;;;;;18.13;46.56;95061.19;5070321;28;20080;-64
2021/06/20 08:41:04;;;;;;;4.63;2.08;;;;;;;18.72;46.31;95063.84;5068304;28;20338;-64
2021/06/20 08:43:30;;;;;;;2.30;1.83;;;;;;;19.23;45.69;95071.13;5072099;28;20549;-64
2021/06/20 08:45:56;;;;;;;6.60;2.92;;;;;;;18.59;45.48;95073.88;5068762;28;20077;-64
2021/06/20 08:48:21;;;;;;;3.28;1.98;;;;;;;19.31;44.49;95076.13;5068640;28;20342;-64
2021/06/20 08:50:48;;;;;;;2.67;1.92;;;;;;;19.19;43.90;95077.00;5068162;28;20656;-64
2021/06/20 08:53:15;;;;;;;3.15;2.00;;;;;;;19.05;44.29;95090.03;5063379;28;20194;-64
2021/06/20 08:55:41;;;;;;;7.60;3.92;;;;;;;19.30;42.98;95078.00;5075748;28;20203;-64
2021/06/20 08:58:26;;;;;;;8.02;6.07;;;;;;;18.85;48.36;95095.06;5068839;28;20080;-64
2021/06/20 09:00:52;;;;;;;5.32;2.05;;;;;;;19.45;44.54;95100.91;5067404;28;20109;-64
2021/06/20 09:03:17;;;;;;;5.22;2.10;;;;;;;20.35;42.20;95094.47;5073203;28;20107;-65
2021/06/20 09:05:59;;;;;;;3.50;2.10;;;;;;;20.87;41.97;95094.19;5072388;28;20300;-65
2021/06/20 09:08:26;;;;;;;5.43;2.15;;;;;;;20.47;44.19;95091.63;5066130;28;20506;-65
2021/06/20 09:10:51;;;;;;;3.17;2.10;;;;;;;21.45;40.90;95084.66;5073392;28;20095;-65
2021/06/20 09:13:17;;;;;;;3.88;2.10;;;;;;;21.06;39.44;95091.09;5072346;28;20491;-65
2021/06/20 09:15:42;;;;;;;3.63;1.98;;;;;;;22.11;39.29;95098.81;5072496;28;20100;-64
2021/06/20 09:18:10;;;;;;;4.95;2.03;;;;;;;20.97;40.28;95096.97;5067623;28;20080;-64
2021/06/20 09:20:39;;;;;;;2.25;1.92;;;;;;;21.75;37.32;95088.59;5074929;28;20101;-64
2021/06/20 09:23:08;;;;;;;2.70;1.80;;;;;;;21.69;38.13;95081.53;5066674;28;20104;-64
2021/06/20 09:25:33;;;;;;;5.00;1.90;;;;;;;21.02;40.62;95088.09;5076704;28;20573;-65
2021/06/20 09:28:00;;;;;;;4.20;2.10;;;;;;;20.22;41.98;95089.47;5070306;28;20119;-64
2021/06/20 09:30:27;;;;;;;1.83;1.70;;;;;;;20.05;41.25;95092.22;5073911;28;20172;-64
2021/06/20 09:32:57;;;;;;;4.55;1.90;;;;;;;20.56;41.33;95091.97;5056709;28;20104;-64
2021/06/20 09:35:23;;;;;;;4.85;2.15;;;;;;;20.18;40.05;95097.25;5067440;28;20464;-64
2021/06/20 09:37:51;;;;;;;4.75;2.00;;;;;;;20.85;39.26;95096.34;5067033;28;20072;-64
2021/06/20 09:40:17;;;;;;;7.68;2.00;;;;;;;19.73;40.88;95093.72;5076033;28;20126;-64
2021/06/20 09:42:43;;;;;;;5.20;2.00;;;;;;;20.54;40.54;95088.72;5068941;28;20128;-64
2021/06/20 09:45:09;;;;;;;6.53;1.97;;;;;;;22.10;36.21;95068.16;5067727;28;20073;-64
2021/06/20 09:47:40;;;;;;;7.18;1.92;;;;;;;21.18;36.89;95066.56;5065255;28;20355;-64
2021/06/20 09:50:06;;;;;;;3.90;1.80;;;;;;;22.18;36.13;95068.75;5065757;28;20096;-64
2021/06/20 09:52:33;;;;;;;2.20;1.73;;;;;;;21.79;36.10;95083.47;5072187;28;20126;-65
2021/06/20 09:55:12;;;;;;;3.47;1.83;;;;;;;22.78;34.64;95071.06;5071243;28;20104;-65
2021/06/20 09:57:44;;;;;;;3.30;1.55;;;;;;;22.02;36.40;95079.53;5074603;28;20076;-64
2021/06/20 10:00:11;;;;;;;2.55;1.60;;;;;;;21.10;37.80;95103.03;5074697;28;20105;-64
2021/06/20 10:02:39;;;;;;;2.20;1.70;;;;;;;20.39;39.46;95111.00;5062952;28;20461;-64
2021/06/20 10:05:06;;;;;;;4.72;1.92;;;;;;;21.57;38.81;95097.97;5064489;28;20105;-65
2021/06/20 10:07:31;;;;;;;;;;;;;;;21.85;36.74;95095.94;5064685;28;20112;-65
2021/06/20 10:09:59;;;;;;;2.43;1.80;;;;;;;21.75;36.93;95100.25;5064872;28;20407;-64
2021/06/20 10:12:25;;;;;;;3.70;1.80;;;;;;;21.62;38.04;95100.72;5067373;28;20607;-64
2021/06/20 10:14:52;;;;;;;4.53;1.93;;;;;;;21.77;38.17;95081.03;5043177;28;20084;-64
2021/06/20 10:17:34;;;;;;;2.53;2.00;;;;;;;21.43;38.28;95100.31;5074668;28;20085;-64
2021/06/20 10:20:07;;;;;;;4.55;1.92;;;;;;;20.64;41.57;95104.28;5050870;28;20642;-64
2021/06/20 10:22:41;;;;;;;3.38;1.85;;;;;;;21.40;38.63;95087.31;5076221;28;20081;-64
2021/06/20 10:25:09;;;;;;;4.68;2.00;;;;;;;20.85;40.04;95102.56;5067793;28;20530;-64
2021/06/20 10:27:35;;;;;;;2.38;2.10;;;;;;;22.22;37.50;95086.09;5071374;28;20104;-64
2021/06/20 10:30:06;;;;;;;2.50;1.50;;;;;;;21.77;38.32;95087.25;5071986;28;20100;-64
2021/06/20 10:32:40;;;;;;;3.58;1.98;;;;;;;21.93;35.94;95091.97;5067558;28;20216;-64
2021/06/20 10:35:08;;;;;;;3.17;1.85;;;;;;;22.15;36.19;95070.09;5075062;28;20109;-65
2021/06/20 10:37:35;;;;;;;1.63;1.50;;;;;;;22.75;33.40;95077.03;5069697;28;20085;-65
2021/06/20 10:40:01;;;;;;;3.85;1.88;;;;;;;22.29;33.94;95078.53;5077709;28;20655;-64
2021/06/20 10:42:37;;;;;;;3.42;1.50;;;;;;;22.47;33.56;95077.22;5078769;28;20125;-64
2021/06/20 10:45:05;;;;;;;4.30;1.73;;;;;;;22.60;34.06;95080.56;5060642;28;20177;-64
2021/06/20 10:47:31;;;;;;;2.08;1.70;;;;;;;22.35;34.34;95074.78;5070940;28;20097;-64
2021/06/20 10:49:58;;;;;;;2.72;1.73;;;;;;;22.16;34.95;95071.72;5072423;28;20097;-64
2021/06/20 10:52:24;;;;;;;2.83;1.70;;;;;;;21.58;35.86;95062.50;5080818;28;20604;-64
2021/06/20 10:54:53;;;;;;;8.50;1.98;;;;;;;22.40;33.63;95079.41;5066985;28;20077;-64
2021/06/20 10:57:26;;;;;;;2.05;1.67;;;;;;;22.75;36.31;95064.28;5073911;28;20116;-64
2021/06/20 10:59:59;;;;;;;2.08;1.63;;;;;;;22.79;35.01;95059.94;5067237;28;20105;-64
2021/06/20 11:02:33;;;;;;;4.22;2.22;;;;;;;21.59;36.77;95055.22;5070182;28;20088;-64
2021/06/20 11:04:59;;;;;;;3.08;1.98;;;;;;;22.39;36.45;95065.00;5048075;28;20580;-64
2021/06/20 11:07:27;;;;;;;6.10;2.10;;;;;;;22.68;35.97;95060.19;5067205;28;20133;-64
2021/06/20 11:09:53;;;;;;;4.03;1.92;;;;;;;22.28;36.43;95052.50;5071990;28;20516;-64
2021/06/20 11:12:19;;;;;;;3.93;2.13;;;;;;;23.26;33.59;95054.53;5079126;28;20362;-65
2021/06/20 11:14:45;;;;;;;2.65;1.80;;;;;;;24.09;34.11;95042.59;5077928;28;20445;-64
2021/06/20 11:17:11;;;;;;;2.17;1.88;;;;;;;24.66;32.37;95053.19;5050883;28;20163;-65
2021/06/20 11:19:36;;;;;;;4.82;2.10;;;;;;;24.80;31.33;95056.06;5074013;28;20093;-64
2021/06/20 11:22:06;;;;;;;2.57;1.90;;;;;;;24.66;33.10;95058.63;5074412;28;20189;-65
2021/06/20 11:24:33;;;;;;;2.13;1.90;;;;;;;24.73;31.49;95054.75;5066016;28;20109;-65
2021/06/20 11:27:15;;;;;;;2.22;2.00;;;;;;;24.79;32.32;95050.91;5078109;28;20108;-65